createdAt,value
2017-09-24T00:03:34.159Z,9.3
2017-09-24T00:13:48.559Z,9.1
2017-09-24T00:24:02.710Z,8.9
2017-09-24T00:34:16.914Z,9.4
2017-09-24T00:44:31.268Z,9.4
2017-09-24T00:54:46.144Z,9.7
2017-09-24T01:04:59.692Z,9.4
2017-09-24T01:15:14.121Z,9.9
2017-09-24T01:25:27.402Z,10.2
2017-09-24T01:35:37.615Z,10.3
2017-09-24T01:45:52.354Z,10.3
2017-09-24T01:56:05.531Z,10.2
2017-09-24T02:06:19.294Z,10.1
2017-09-24T02:16:31.931Z,9.6
2017-09-24T02:26:45.451Z,9.4
2017-09-24T02:36:58.563Z,9.4
2017-09-24T02:47:12.280Z,9.6
2017-09-24T02:57:26.629Z,9.4
2017-09-24T03:07:40.711Z,9.5
2017-09-24T03:17:53.809Z,9.9
2017-09-24T03:28:07.492Z,10
2017-09-24T03:38:22.237Z,10.1
2017-09-24T03:48:32.455Z,10.1
2017-09-24T03:58:46.576Z,10.2
2017-09-24T04:09:01.277Z,10.5
2017-09-24T04:19:15.449Z,10.6
2017-09-24T04:29:30.537Z,10.8
2017-09-24T04:39:44.999Z,10.8
2017-09-24T04:49:58.240Z,10.7
2017-09-24T05:00:11.691Z,10.5
2017-09-24T05:10:24.828Z,10.6
2017-09-24T05:20:39.315Z,10.7
2017-09-24T05:30:53.891Z,10.8
2017-09-24T05:41:08.539Z,10.8
2017-09-24T05:51:22.771Z,10.9
2017-09-24T06:01:32.989Z,10.9
2017-09-24T06:11:46.830Z,11
2017-09-24T06:22:00.159Z,11.2
2017-09-24T06:32:13.805Z,11.3
2017-09-24T06:42:28.430Z,11.4
2017-09-24T06:52:43.296Z,11.7
2017-09-24T07:02:58.357Z,11.8
2017-09-24T07:13:12.046Z,12.1
2017-09-24T07:23:26.255Z,12.3
2017-09-24T07:33:40.921Z,12.9
2017-09-24T07:43:55.432Z,13.1
2017-09-24T07:54:09.605Z,13.3
2017-09-24T08:04:23.318Z,13.3
2017-09-24T08:14:33.601Z,13.6
2017-09-24T08:24:47.404Z,14.1
2017-09-24T08:35:01.480Z,14.2
2017-09-24T08:45:15.085Z,14.9
2017-09-24T08:55:29.856Z,15
2017-09-24T09:05:44.003Z,15.5
2017-09-24T09:15:57.570Z,15.7
2017-09-24T09:26:10.808Z,16.5
2017-09-24T09:36:26.009Z,17.2
2017-09-24T09:46:39.235Z,17.7
2017-09-24T09:56:52.494Z,19.1
2017-09-24T10:07:06.783Z,20.2
2017-09-24T10:17:20.414Z,19.7
2017-09-24T10:27:34.356Z,20.8
2017-09-24T10:37:48.406Z,21
2017-09-24T10:47:58.834Z,21.2
2017-09-24T10:58:12.568Z,20.7
2017-09-24T11:08:27.382Z,21.5
2017-09-24T11:18:40.971Z,21.7
2017-09-24T11:28:55.897Z,22.2
2017-09-24T11:39:09.456Z,21
2017-09-24T11:49:24.458Z,21.6
2017-09-24T11:59:39.188Z,22
2017-09-24T12:09:52.511Z,19.7
2017-09-24T12:20:06.965Z,21.4
2017-09-24T12:30:21.170Z,22
2017-09-24T12:40:35.378Z,21.1
2017-09-24T12:50:49.195Z,21.8
2017-09-24T13:00:59.605Z,22.5
2017-09-24T13:11:12.925Z,22.1
2017-09-24T13:21:26.529Z,20.2
2017-09-24T13:31:39.814Z,20.8
2017-09-24T13:41:53.815Z,21.3
2017-09-24T13:52:07.858Z,21.9
2017-09-24T14:02:22.652Z,21.6
2017-09-24T14:12:36.495Z,21.9
2017-09-24T14:22:51.676Z,21.7
2017-09-24T14:33:05.299Z,22.1
2017-09-24T14:43:18.949Z,21
2017-09-24T14:53:33.685Z,22.1
2017-09-24T15:03:48.954Z,22
2017-09-24T15:13:59.252Z,20.4
2017-09-24T15:24:12.697Z,19.2
2017-09-24T15:34:26.823Z,18.7
2017-09-24T15:44:41.021Z,18.4
2017-09-24T15:54:54.493Z,18.6
2017-09-24T16:05:07.732Z,18.4
2017-09-24T16:15:21.980Z,18.1
2017-09-24T16:25:35.754Z,17.7
2017-09-24T16:35:50.127Z,17.6
2017-09-24T16:46:04.545Z,17.3
2017-09-24T16:56:18.734Z,17
2017-09-24T17:06:32.051Z,16.8
2017-09-24T17:16:46.722Z,16.7
2017-09-24T17:26:57.139Z,16.6
2017-09-24T17:37:11.231Z,16.5
2017-09-24T17:47:25.603Z,16.3
2017-09-24T17:57:39.731Z,16.2
2017-09-24T18:07:54.277Z,15.9
2017-09-24T18:18:08.488Z,15.7
2017-09-24T18:28:22.594Z,15.6
2017-09-24T18:38:37.415Z,15.6
2017-09-24T18:48:52.327Z,15.6
2017-09-24T18:59:06.463Z,15.5
2017-09-24T19:09:20.271Z,15.5
2017-09-24T19:19:35.263Z,15.5
2017-09-24T19:29:49.374Z,15.4
2017-09-24T19:39:59.634Z,15.5
2017-09-24T19:50:13.033Z,15.5
2017-09-24T20:00:27.583Z,15.5
2017-09-24T20:10:41.451Z,15.5
2017-09-24T20:20:55.844Z,15.3
2017-09-24T20:31:10.448Z,15
2017-09-24T20:41:24.614Z,15.2
2017-09-24T20:51:37.815Z,15.4
2017-09-24T21:01:50.996Z,15.3
2017-09-24T21:12:05.057Z,15.5
2017-09-24T21:22:18.953Z,15.4
2017-09-24T21:32:33.827Z,15.3
2017-09-24T21:42:48.906Z,15.3
2017-09-24T21:52:59.173Z,15.3
2017-09-24T22:03:13.902Z,15.3
2017-09-24T22:13:28.828Z,15.4
2017-09-24T22:23:42.412Z,15.3
2017-09-24T22:33:56.130Z,15.3
2017-09-24T22:44:10.374Z,15.4
2017-09-24T22:54:23.823Z,15.3
2017-09-24T23:04:36.998Z,15.3
2017-09-24T23:14:50.717Z,15.4
2017-09-24T23:25:04.356Z,15.3
2017-09-24T23:35:18.500Z,15.3
2017-09-24T23:45:32.280Z,15.3
2017-09-24T23:55:46.008Z,15.1
